KBDL/BDL METAR and TAF weather

Enter ICAO airport designator
Station Type Date Time Source
KBDL METAR 2022/10/01 06:51 UTC NOAA

KBDL 010651Z 32003KT 10SM BKN150 OVC180 11/09 A3016 RMK AO2 SLP211 T01060089


Station Type Date Time Source
KBDL Decoded METAR 2022/10/01 06:51 UTC NOAA

BRADLEY INTERNATIONAL AIRPORT , CT, United States (KBDL) 41-56N 072-41W 60M
Oct 01, 2022 - 02:51 AM EDT / 2022.10.01 0651 UTC
Wind: from the NW (320 degrees) at 3 MPH (3 KT):0
Visibility: 10 mile(s):0
Sky conditions: overcast
Temperature: 51.1 F (10.6 C)
Dew Point: 48.0 F (8.9 C)
Relative Humidity: 89%
Pressure (altimeter): 30.16 in. Hg (1021 hPa)
ob: KBDL 010651Z 32003KT 10SM BKN150 OVC180 11/09 A3016 RMK AO2 SLP211 T01060089
cycle: 7

Station Type Date Time Source
KBDL TAF 2022/10/01 06:30 UTC NOAA

TAF KBDL 010529Z 0106/0212 01003KT P6SM BKN250
FM011000 02003KT P6SM OVC100
FM011400 03005KT 6SM -RA OVC040
FM011800 01007KT 4SM -RA BR OVC020
FM012000 02007KT P6SM VCSH OVC025
FM021000 02010G17KT P6SM BKN045

Example: see airport list